Time;durP1;ratioP1;P1;durP2;ratioP2;P2;SDS_P1;SDS_P2;PMS_P1;PMS_P2;Temp;Humidity;BMP_temperature;BMP_pressure;BME280_temperature;BME280_humidity;BME280_pressure;Samples;Min_cycle;Max_cycle;Signal;HPM_P1;HPM_P2
2023/06/09 00:02:27;;;;;;;7.40;2.33;;;19.20;77.50;;;;;;10490246;28;20043;-65
2023/06/09 00:07:29;;;;;;;3.92;1.90;;;19.20;77.50;;;;;;10498033;28;20117;-66
2023/06/09 00:12:30;;;;;;;7.00;2.70;;;19.20;77.50;;;;;;10483296;28;20025;-65
2023/06/09 00:17:31;;;;;;;5.70;2.22;;;19.10;77.50;;;;;;10483818;28;20032;-65
2023/06/09 00:22:31;;;;;;;4.57;2.10;;;19.10;77.40;;;;;;10473226;28;20025;-66
2023/06/09 00:27:32;;;;;;;5.93;2.10;;;19.10;77.40;;;;;;10493301;28;20032;-66
2023/06/09 00:32:32;;;;;;;7.07;2.40;;;19.10;77.40;;;;;;10485188;28;20496;-65
2023/06/09 00:37:34;;;;;;;4.07;2.33;;;19.00;77.40;;;;;;10484548;28;20020;-66
2023/06/09 00:42:35;;;;;;;5.75;2.40;;;19.00;77.40;;;;;;10481634;28;20037;-65
2023/06/09 00:47:36;;;;;;;4.78;2.20;;;18.90;77.30;;;;;;10493713;28;20017;-65
2023/06/09 00:52:37;;;;;;;4.15;2.33;;;18.90;77.40;;;;;;10462926;28;20033;-65
2023/06/09 00:57:39;;;;;;;4.88;2.28;;;18.90;77.40;;;;;;10478059;28;20048;-66
2023/06/09 01:02:40;;;;;;;4.32;2.05;;;18.90;77.40;;;;;;10499241;28;20116;-65
2023/06/09 01:07:54;;;;;;;5.57;2.38;;;18.80;77.40;;;;;;10484205;28;20279;-66
2023/06/09 01:13:18;;;;;;;6.00;2.20;;;18.80;77.40;;;;;;10472606;28;20231;-65
2023/06/09 01:18:24;;;;;;;5.55;2.72;;;18.70;77.40;;;;;;10469736;28;20118;-65
2023/06/09 01:23:46;;;;;;;6.75;2.80;;;18.80;77.50;;;;;;10476544;28;20020;-65
2023/06/09 01:28:48;;;;;;;3.28;2.00;;;18.70;77.40;;;;;;10469925;28;20031;-65
2023/06/09 01:33:49;;;;;;;5.43;2.17;;;18.70;77.50;;;;;;10467986;28;20035;-65
2023/06/09 01:38:49;;;;;;;5.93;2.40;;;18.60;77.40;;;;;;10470610;28;20309;-66
2023/06/09 01:43:50;;;;;;;5.63;2.20;;;18.60;77.50;;;;;;10477655;28;20036;-65
2023/06/09 01:49:26;;;;;;;5.63;2.40;;;18.60;77.50;;;;;;10472897;28;20024;-65
2023/06/09 01:54:37;;;;;;;8.48;2.25;;;18.60;77.60;;;;;;10458976;28;20040;-65
2023/06/09 01:59:51;;;;;;;4.00;2.08;;;18.50;77.50;;;;;;10482931;28;20036;-64
2023/06/09 02:04:53;;;;;;;4.43;2.30;;;18.50;77.50;;;;;;10475731;28;20049;-65
2023/06/09 02:09:55;;;;;;;4.30;2.13;;;18.50;77.60;;;;;;10484039;28;20115;-65
2023/06/09 02:14:55;;;;;;;7.93;2.83;;;18.50;77.70;;;;;;10487387;28;20111;-65
2023/06/09 02:19:56;;;;;;;6.47;2.47;;;18.40;77.60;;;;;;10479110;28;20488;-65
2023/06/09 02:24:57;;;;;;;6.95;3.00;;;18.40;77.70;;;;;;10482045;28;20028;-64
2023/06/09 02:29:57;;;;;;;7.93;2.92;;;18.40;77.70;;;;;;10478340;28;20024;-65
2023/06/09 02:34:58;;;;;;;7.60;2.75;;;18.30;77.70;;;;;;10483676;28;20024;-65
2023/06/09 02:39:59;;;;;;;5.50;2.80;;;18.30;77.70;;;;;;10481505;28;20542;-65
2023/06/09 02:45:00;;;;;;;6.20;2.38;;;18.30;77.80;;;;;;10477189;28;20025;-66
2023/06/09 02:50:01;;;;;;;6.88;2.78;;;18.30;77.80;;;;;;10475632;28;20476;-66
2023/06/09 02:55:03;;;;;;;6.85;2.35;;;18.30;77.80;;;;;;10479945;28;20020;-65
2023/06/09 03:00:06;;;;;;;5.88;2.67;;;18.20;77.80;;;;;;10477401;28;20013;-65
2023/06/09 03:05:08;;;;;;;5.55;2.67;;;18.20;77.80;;;;;;10481745;28;20115;-67
2023/06/09 03:10:08;;;;;;;5.32;2.80;;;18.20;77.90;;;;;;10475095;28;20043;-67
2023/06/09 03:15:09;;;;;;;5.38;2.90;;;18.20;77.90;;;;;;10478071;28;20024;-67
2023/06/09 03:20:10;;;;;;;4.95;2.50;;;18.10;77.90;;;;;;10472022;28;20024;-67
2023/06/09 03:25:11;;;;;;;5.20;3.13;;;18.10;77.90;;;;;;10476244;28;20099;-67
2023/06/09 03:30:12;;;;;;;6.25;2.70;;;18.20;78.00;;;;;;10477736;28;20020;-67
2023/06/09 03:35:14;;;;;;;7.82;3.13;;;18.10;78.00;;;;;;10475983;28;20037;-67
2023/06/09 03:40:15;;;;;;;5.35;2.92;;;18.00;78.00;;;;;;10477786;28;20032;-67
2023/06/09 03:45:15;;;;;;;6.28;3.20;;;18.10;78.10;;;;;;10478054;28;20021;-67
2023/06/09 03:50:16;;;;;;;5.80;3.28;;;18.00;78.10;;;;;;10476756;28;20028;-67
2023/06/09 03:55:22;;;;;;;5.90;2.92;;;18.00;78.10;;;;;;10476968;28;20039;-67
2023/06/09 04:00:24;;;;;;;7.43;3.08;;;18.00;78.20;;;;;;10475269;28;20033;-67
2023/06/09 04:05:25;;;;;;;10.05;4.00;;;17.90;78.10;;;;;;10474511;28;20025;-67
2023/06/09 04:10:25;;;;;;;6.90;3.03;;;17.90;78.10;;;;;;10486106;28;20036;-67
2023/06/09 04:15:26;;;;;;;8.85;3.17;;;17.90;78.20;;;;;;10475568;28;20490;-67
2023/06/09 04:20:27;;;;;;;7.30;2.83;;;18.00;78.40;;;;;;10479199;28;20115;-68
2023/06/09 04:25:27;;;;;;;5.03;2.80;;;17.90;78.20;;;;;;10478141;28;20028;-67
2023/06/09 04:30:30;;;;;;;5.72;3.33;;;17.90;78.30;;;;;;10479339;28;20029;-67
2023/06/09 04:35:31;;;;;;;6.40;3.13;;;17.90;78.30;;;;;;10463590;28;20031;-67
2023/06/09 04:40:32;;;;;;;8.85;3.63;;;17.90;78.30;;;;;;10479304;28;20028;-67
2023/06/09 04:45:36;;;;;;;8.63;3.38;;;17.80;78.50;;;;;;10478230;28;20102;-68
2023/06/09 04:50:37;;;;;;;6.65;3.40;;;17.80;78.60;;;;;;10474557;28;20027;-67
2023/06/09 04:55:38;;;;;;;8.32;3.42;;;17.80;78.60;;;;;;10481737;28;20024;-66
2023/06/09 05:00:39;;;;;;;7.07;4.13;;;17.70;78.80;;;;;;10473811;28;20025;-67
2023/06/09 05:05:42;;;;;;;7.15;3.35;;;17.70;78.80;;;;;;10476670;28;20020;-66
2023/06/09 05:10:42;;;;;;;8.95;3.83;;;17.70;78.80;;;;;;10474699;28;20536;-66
2023/06/09 05:15:43;;;;;;;7.10;3.50;;;17.70;78.80;;;;;;10470054;28;20091;-67
2023/06/09 05:20:43;;;;;;;8.38;4.22;;;17.70;78.70;;;;;;10480067;28;20043;-67
2023/06/09 05:25:44;;;;;;;7.90;3.80;;;17.70;78.70;;;;;;10484782;28;20111;-66
2023/06/09 05:30:44;;;;;;;9.23;3.90;;;17.70;78.70;;;;;;10468219;28;20029;-67
2023/06/09 05:35:47;;;;;;;7.45;3.70;;;17.70;78.70;;;;;;10478790;28;20028;-67
2023/06/09 05:40:47;;;;;;;7.63;3.50;;;17.70;78.70;;;;;;10482943;28;20024;-67
2023/06/09 05:45:48;;;;;;;5.88;3.38;;;17.80;78.80;;;;;;10474150;28;20523;-67
2023/06/09 05:50:48;;;;;;;8.13;4.40;;;17.70;78.80;;;;;;10480135;28;20475;-66
2023/06/09 05:55:49;;;;;;;6.90;3.60;;;17.80;78.80;;;;;;10489435;28;20111;-67
2023/06/09 06:00:51;;;;;;;7.57;3.60;;;17.80;78.80;;;;;;10475539;28;20036;-67
2023/06/09 06:05:52;;;;;;;9.45;3.63;;;17.80;78.80;;;;;;10468651;28;20035;-66
2023/06/09 06:10:53;;;;;;;5.95;3.40;;;17.80;78.80;;;;;;10480687;28;20021;-66
2023/06/09 06:15:53;;;;;;;6.45;3.22;;;17.80;78.90;;;;;;10484629;28;20025;-67
2023/06/09 06:20:54;;;;;;;6.65;3.75;;;17.80;78.90;;;;;;10484276;28;20512;-67
2023/06/09 06:25:54;;;;;;;6.60;2.90;;;17.80;78.90;;;;;;10499336;28;20399;-67
2023/06/09 06:30:55;;;;;;;5.43;3.47;;;17.80;78.90;;;;;;10492505;28;20059;-66
2023/06/09 06:35:56;;;;;;;6.35;3.80;;;17.80;78.90;;;;;;10492374;28;20044;-66
2023/06/09 06:40:56;;;;;;;9.25;3.47;;;17.80;78.90;;;;;;10490351;28;20024;-67
2023/06/09 06:45:57;;;;;;;5.90;3.03;;;17.80;79.00;;;;;;10482051;28;20053;-67
2023/06/09 06:50:58;;;;;;;8.52;3.22;;;17.90;79.00;;;;;;10465218;28;20523;-67
2023/06/09 06:55:59;;;;;;;8.73;3.42;;;17.90;79.20;;;;;;10485573;28;20495;-66
2023/06/09 07:01:00;;;;;;;7.78;3.60;;;17.90;79.10;;;;;;10483866;28;20026;-67
2023/06/09 07:06:03;;;;;;;5.13;3.40;;;17.90;79.20;;;;;;10484164;28;20047;-67
2023/06/09 07:11:04;;;;;;;4.68;2.88;;;17.90;79.30;;;;;;10473291;28;20046;-67
2023/06/09 07:16:04;;;;;;;6.13;3.35;;;18.00;79.30;;;;;;10490182;28;20016;-67
2023/06/09 07:21:05;;;;;;;8.52;3.70;;;18.00;79.30;;;;;;10494029;28;20119;-67
2023/06/09 07:26:09;;;;;;;8.10;4.03;;;18.00;79.30;;;;;;10483604;28;20929;-67
2023/06/09 07:31:09;;;;;;;7.28;3.25;;;18.10;79.40;;;;;;10483558;28;20082;-67
2023/06/09 07:36:11;;;;;;;7.80;3.33;;;18.10;79.50;;;;;;10477325;28;20031;-68
2023/06/09 07:41:13;;;;;;;6.45;3.63;;;18.10;79.60;;;;;;10488695;28;20488;-66
2023/06/09 07:46:14;;;;;;;5.50;3.17;;;18.20;79.60;;;;;;10481609;28;20500;-67
2023/06/09 07:51:16;;;;;;;4.93;3.10;;;18.20;79.70;;;;;;10480194;28;20028;-66
2023/06/09 07:56:17;;;;;;;6.72;3.47;;;18.20;79.70;;;;;;10480440;28;20024;-66
2023/06/09 08:01:17;;;;;;;6.82;3.30;;;18.30;80.40;;;;;;10484261;28;20258;-67
2023/06/09 08:06:18;;;;;;;5.43;3.38;;;18.30;79.80;;;;;;10479755;28;20025;-66
2023/06/09 08:11:19;;;;;;;6.78;3.83;;;18.40;79.90;;;;;;10490355;28;20025;-66
2023/06/09 08:16:19;;;;;;;8.25;3.75;;;18.40;80.00;;;;;;10488263;28;20095;-66
2023/06/09 08:21:20;;;;;;;6.07;3.60;;;18.50;80.10;;;;;;10487600;28;20021;-66
2023/06/09 08:26:21;;;;;;;7.15;3.80;;;18.50;80.10;;;;;;10491467;28;20044;-67
2023/06/09 08:31:24;;;;;;;7.35;3.97;;;18.50;80.10;;;;;;10474848;28;20431;-67
2023/06/09 08:36:26;;;;;;;8.20;3.50;;;18.60;80.20;;;;;;10479120;28;20032;-66
2023/06/09 08:41:28;;;;;;;6.93;4.22;;;18.70;80.30;;;;;;10472347;28;20037;-66
2023/06/09 08:46:38;;;;;;;6.13;3.63;;;18.70;80.30;;;;;;10480516;28;20031;-66
2023/06/09 08:51:38;;;;;;;7.72;3.90;;;18.70;80.40;;;;;;10476298;28;20099;-67
2023/06/09 08:56:40;;;;;;;8.88;3.60;;;18.80;80.50;;;;;;10489963;28;20029;-66
2023/06/09 09:01:41;;;;;;;8.30;3.60;;;18.90;80.60;;;;;;10478223;28;20047;-67
2023/06/09 09:06:42;;;;;;;6.03;3.80;;;18.90;80.60;;;;;;10479275;28;20478;-64
2023/06/09 09:11:45;;;;;;;8.73;4.28;;;19.00;80.60;;;;;;10478658;28;20017;-64
2023/06/09 09:16:45;;;;;;;5.90;3.50;;;19.00;80.60;;;;;;10477972;28;20111;-65
2023/06/09 09:21:46;;;;;;;7.38;3.72;;;19.10;80.80;;;;;;10481632;28;20207;-65
2023/06/09 09:26:47;;;;;;;7.13;3.60;;;19.10;80.80;;;;;;10479433;28;20021;-64
2023/06/09 09:31:47;;;;;;;8.68;4.10;;;19.20;80.90;;;;;;10480246;28;20107;-65
2023/06/09 09:36:54;;;;;;;8.27;4.00;;;19.20;80.90;;;;;;10484469;28;20065;-64
2023/06/09 09:42:01;;;;;;;7.30;3.78;;;19.30;81.10;;;;;;10477997;28;20150;-64
2023/06/09 09:47:08;;;;;;;7.13;4.30;;;19.30;81.20;;;;;;10474049;28;20029;-65
2023/06/09 09:52:09;;;;;;;6.87;4.17;;;19.40;81.00;;;;;;10486250;28;20039;-64
2023/06/09 09:57:11;;;;;;;5.57;3.88;;;19.50;81.10;;;;;;10475807;28;20023;-65
2023/06/09 10:02:17;;;;;;;7.97;4.00;;;19.50;81.20;;;;;;10472720;28;20056;-64
2023/06/09 10:07:23;;;;;;;6.95;4.18;;;19.70;81.30;;;;;;10481824;28;20093;-64
2023/06/09 10:12:25;;;;;;;6.65;4.28;;;19.70;81.40;;;;;;10484970;28;20024;-64
2023/06/09 10:17:27;;;;;;;6.43;4.43;;;19.70;81.40;;;;;;10482053;28;20164;-65
2023/06/09 10:22:28;;;;;;;8.25;4.60;;;19.80;81.40;;;;;;10484963;28;20791;-65
2023/06/09 10:27:29;;;;;;;6.90;4.55;;;19.90;81.40;;;;;;10487965;28;20795;-65
2023/06/09 10:32:31;;;;;;;5.88;4.32;;;20.00;81.40;;;;;;10489907;28;20085;-64
2023/06/09 10:37:34;;;;;;;7.47;4.85;;;20.10;81.40;;;;;;10487225;28;20020;-65
2023/06/09 10:42:58;;;;;;;5.75;4.30;;;20.10;81.30;;;;;;10494381;28;20028;-66
2023/06/09 10:47:58;;;;;;;8.82;4.63;;;20.30;81.90;;;;;;10487936;28;20020;-65
2023/06/09 10:53:00;;;;;;;9.70;4.88;;;20.20;81.30;;;;;;10484285;28;20400;-64
2023/06/09 10:58:00;;;;;;;6.13;4.78;;;20.40;81.30;;;;;;10489296;28;20020;-65
2023/06/09 11:03:08;;;;;;;8.07;4.43;;;20.50;81.30;;;;;;10487139;28;20036;-64
2023/06/09 11:08:09;;;;;;;;;;;20.60;81.50;;;;;;10485739;28;20029;-64
2023/06/09 11:13:39;;;;;;;7.47;4.35;;;20.60;82.30;;;;;;10488013;28;19916;-65
2023/06/09 11:18:40;;;;;;;9.35;5.22;;;20.70;81.80;;;;;;10483665;28;20376;-63
2023/06/09 11:23:54;;;;;;;8.25;4.47;;;20.70;81.10;;;;;;10487011;28;20035;-65
2023/06/09 11:28:55;;;;;;;6.28;4.53;;;20.90;81.50;;;;;;10489565;28;20055;-65
2023/06/09 11:33:56;;;;;;;6.43;4.50;;;20.90;81.20;;;;;;10483991;28;20028;-64
2023/06/09 11:39:01;;;;;;;7.93;4.15;;;21.00;81.10;;;;;;10490018;28;20021;-65
2023/06/09 11:44:02;;;;;;;6.15;4.45;;;21.10;81.00;;;;;;10484162;28;20483;-65
2023/06/09 11:49:07;;;;;;;7.53;4.38;;;21.20;80.90;;;;;;10487519;28;20021;-66
2023/06/09 11:54:09;;;;;;;6.82;4.90;;;21.30;80.90;;;;;;10483355;28;20093;-66
2023/06/09 11:59:09;;;;;;;8.23;5.53;;;21.30;80.70;;;;;;10487995;28;20111;-66
2023/06/09 12:04:10;;;;;;;7.65;4.93;;;21.50;80.60;;;;;;10484596;28;20032;-68
2023/06/09 12:09:20;;;;;;;8.20;5.82;;;21.50;80.40;;;;;;10480509;28;20021;-64
2023/06/09 12:14:21;;;;;;;6.60;5.00;;;21.60;80.40;;;;;;10482355;28;20488;-65
2023/06/09 12:19:22;;;;;;;7.10;5.00;;;21.70;80.20;;;;;;10483924;28;20016;-65
2023/06/09 12:24:22;;;;;;;6.00;4.82;;;21.80;80.20;;;;;;10480111;28;20040;-65
2023/06/09 12:29:27;;;;;;;7.50;4.88;;;21.80;80.10;;;;;;10475721;28;20492;-64
2023/06/09 12:34:30;;;;;;;8.32;5.85;;;22.00;80.10;;;;;;10475852;28;20020;-70
2023/06/09 12:39:34;;;;;;;7.65;5.85;;;22.90;77.20;;;;;;10480550;28;20016;-69
2023/06/09 12:44:35;;;;;;;8.93;5.80;;;24.10;74.60;;;;;;10480095;28;20139;-69
2023/06/09 12:49:35;;;;;;;7.35;6.22;;;24.90;73.00;;;;;;10475415;28;20399;-69
2023/06/09 12:54:37;;;;;;;9.00;5.85;;;25.50;71.30;;;;;;10480790;28;20424;-71
2023/06/09 12:59:37;;;;;;;6.72;5.63;;;26.00;70.10;;;;;;10477535;28;20027;-71
2023/06/09 13:04:38;;;;;;;8.43;5.55;;;26.30;68.90;;;;;;10478519;28;20628;-70
2023/06/09 13:09:39;;;;;;;7.28;6.45;;;26.40;69.50;;;;;;10475313;28;20043;-70
2023/06/09 13:14:39;;;;;;;9.32;6.00;;;26.60;69.30;;;;;;10487483;28;20032;-71
2023/06/09 13:19:40;;;;;;;8.73;6.05;;;26.80;68.80;;;;;;10485997;28;20119;-70
2023/06/09 13:24:41;;;;;;;9.50;5.72;;;26.90;68.40;;;;;;10487424;28;20025;-71
2023/06/09 13:29:41;;;;;;;10.95;6.25;;;27.10;67.50;;;;;;10489384;28;20415;-71
2023/06/09 13:34:42;;;;;;;6.90;6.03;;;27.40;67.00;;;;;;10492859;28;20033;-72
2023/06/09 13:39:42;;;;;;;9.48;6.22;;;27.60;66.70;;;;;;10480134;28;20495;-71
2023/06/09 13:44:43;;;;;;;8.05;6.20;;;27.60;66.50;;;;;;10479358;28;20043;-70
2023/06/09 13:49:44;;;;;;;7.35;6.22;;;27.70;66.40;;;;;;10486329;28;20040;-68
2023/06/09 13:54:45;;;;;;;8.10;6.13;;;27.70;65.90;;;;;;10486566;28;20452;-69
2023/06/09 13:59:45;;;;;;;6.68;5.95;;;27.80;65.70;;;;;;10482257;28;20096;-69
2023/06/09 14:04:46;;;;;;;7.55;5.78;;;27.90;65.90;;;;;;10489706;28;20032;-68
2023/06/09 14:09:47;;;;;;;9.68;6.38;;;28.10;65.70;;;;;;10488129;28;20090;-69
2023/06/09 14:14:48;;;;;;;7.65;6.03;;;28.20;65.30;;;;;;10490860;28;20539;-70
2023/06/09 14:19:49;;;;;;;8.68;6.55;;;28.30;65.20;;;;;;10492807;28;20025;-69
2023/06/09 14:24:49;;;;;;;8.57;6.28;;;28.40;64.60;;;;;;10483792;28;20033;-70
2023/06/09 14:29:50;;;;;;;11.02;6.70;;;28.40;65.00;;;;;;10491582;28;20103;-71
2023/06/09 14:34:50;;;;;;;8.95;6.15;;;28.50;65.00;;;;;;10492283;28;20067;-70
2023/06/09 14:39:51;;;;;;;9.30;6.07;;;28.60;64.00;;;;;;10488810;28;20079;-70
2023/06/09 14:44:52;;;;;;;9.02;6.53;;;28.60;63.80;;;;;;10476520;28;20028;-71
2023/06/09 14:49:52;;;;;;;11.82;6.32;;;28.50;64.00;;;;;;10492310;28;20048;-71
2023/06/09 14:54:53;;;;;;;8.45;6.40;;;28.40;64.00;;;;;;10485505;28;20028;-70
2023/06/09 14:59:53;;;;;;;7.63;6.45;;;28.50;64.00;;;;;;10480942;28;20052;-70
2023/06/09 15:04:54;;;;;;;7.97;6.13;;;28.70;64.20;;;;;;10483740;28;20047;-70
2023/06/09 15:09:55;;;;;;;11.25;6.55;;;28.90;63.70;;;;;;10481631;28;20038;-70
2023/06/09 15:14:56;;;;;;;8.60;6.30;;;28.80;62.50;;;;;;10485022;28;20029;-70
2023/06/09 15:19:56;;;;;;;9.05;6.68;;;28.80;62.20;;;;;;10484016;28;20540;-71
2023/06/09 15:24:57;;;;;;;8.32;6.40;;;28.70;62.10;;;;;;10484522;28;20322;-71
2023/06/09 15:29:57;;;;;;;8.10;5.80;;;28.60;62.20;;;;;;10481838;28;20047;-71
2023/06/09 15:34:58;;;;;;;8.30;5.97;;;28.50;61.60;;;;;;10473120;28;20492;-71
2023/06/09 15:39:59;;;;;;;7.50;6.80;;;28.30;61.50;;;;;;10478125;28;20555;-71
2023/06/09 15:44:59;;;;;;;6.88;6.18;;;28.20;61.80;;;;;;10477403;28;20579;-71
2023/06/09 15:50:00;;;;;;;7.75;5.82;;;28.20;62.30;;;;;;10480505;28;20810;-70
2023/06/09 15:55:03;;;;;;;8.75;6.18;;;28.10;62.30;;;;;;10481982;28;20071;-71
2023/06/09 16:00:05;;;;;;;6.88;5.80;;;28.10;62.30;;;;;;10486935;28;20016;-72
2023/06/09 16:05:06;;;;;;;7.40;6.03;;;28.00;62.60;;;;;;10475949;28;20115;-72
2023/06/09 16:10:07;;;;;;;8.00;6.10;;;27.90;63.00;;;;;;10477435;28;20481;-73
2023/06/09 16:15:08;;;;;;;9.25;6.63;;;27.70;63.40;;;;;;10474851;28;20040;-71
2023/06/09 16:20:09;;;;;;;7.10;5.60;;;27.60;62.90;;;;;;10485269;28;20035;-73
2023/06/09 16:25:09;;;;;;;7.75;6.22;;;27.50;62.20;;;;;;10471314;28;20412;-72
2023/06/09 16:30:10;;;;;;;6.32;5.72;;;27.40;62.60;;;;;;10464043;28;20315;-71
2023/06/09 16:35:11;;;;;;;7.82;6.05;;;27.30;62.30;;;;;;10485262;28;20024;-71
2023/06/09 16:40:12;;;;;;;6.07;5.30;;;27.40;62.70;;;;;;10465989;28;20032;-72
2023/06/09 16:45:13;;;;;;;7.63;5.85;;;27.20;62.40;;;;;;10482596;28;20322;-73
2023/06/09 16:50:13;;;;;;;5.80;5.18;;;27.10;62.60;;;;;;10474047;28;20024;-71
2023/06/09 16:55:14;;;;;;;8.35;6.00;;;27.10;62.80;;;;;;10490234;28;20119;-71
2023/06/09 17:00:16;;;;;;;6.93;5.50;;;27.10;62.60;;;;;;10482443;28;20432;-71
2023/06/09 17:05:17;;;;;;;7.63;5.50;;;27.00;62.80;;;;;;10486803;28;20108;-71
2023/06/09 17:10:17;;;;;;;6.85;5.45;;;26.90;62.70;;;;;;10482521;28;20025;-71
2023/06/09 17:15:18;;;;;;;7.25;6.18;;;26.90;62.00;;;;;;10474733;28;20037;-71
2023/06/09 17:20:19;;;;;;;7.40;5.60;;;26.90;62.00;;;;;;10482123;28;20016;-71
2023/06/09 17:25:20;;;;;;;7.47;6.32;;;26.80;61.80;;;;;;10480636;28;20028;-72
2023/06/09 17:30:20;;;;;;;7.78;5.60;;;26.80;62.00;;;;;;10486702;28;20506;-72
2023/06/09 17:35:23;;;;;;;7.90;5.50;;;26.70;62.50;;;;;;10484608;28;20052;-72
2023/06/09 17:40:23;;;;;;;7.30;5.47;;;26.60;62.60;;;;;;10492663;28;20033;-77
2023/06/09 17:45:25;;;;;;;6.82;5.00;;;26.60;62.70;;;;;;10489894;28;20097;-72
2023/06/09 17:50:26;;;;;;;11.65;4.80;;;26.50;62.90;;;;;;10483479;28;20036;-72
2023/06/09 17:55:26;;;;;;;11.80;5.20;;;26.50;63.20;;;;;;10487905;28;20021;-73
2023/06/09 18:00:27;;;;;;;6.80;4.80;;;26.40;63.40;;;;;;10486978;28;20102;-73
2023/06/09 18:05:28;;;;;;;8.00;4.50;;;26.30;63.50;;;;;;10493108;28;20035;-73
2023/06/09 18:10:28;;;;;;;7.35;4.65;;;26.20;63.90;;;;;;10498392;28;20032;-73
2023/06/09 18:15:29;;;;;;;7.00;4.57;;;26.10;64.10;;;;;;10512517;28;20028;-73
2023/06/09 18:20:30;;;;;;;10.52;4.82;;;26.00;64.10;;;;;;10487331;28;20017;-72
2023/06/09 18:25:31;;;;;;;8.05;4.35;;;25.90;64.20;;;;;;10495615;28;20090;-70
2023/06/09 18:30:32;;;;;;;6.47;4.50;;;25.80;64.60;;;;;;10483692;28;20088;-70
2023/06/09 18:35:33;;;;;;;5.80;4.07;;;25.80;65.00;;;;;;10480890;28;20028;-71
2023/06/09 18:40:33;;;;;;;6.15;4.38;;;25.70;65.40;;;;;;10497806;28;20016;-69
2023/06/09 18:45:34;;;;;;;8.35;4.70;;;25.60;65.60;;;;;;10481522;28;20020;-70
2023/06/09 18:50:35;;;;;;;5.72;4.20;;;25.60;66.00;;;;;;10496307;28;20017;-69
2023/06/09 18:55:41;;;;;;;4.47;4.00;;;25.50;66.20;;;;;;10484303;28;20103;-69
2023/06/09 19:00:41;;;;;;;6.25;4.07;;;25.50;66.60;;;;;;10480896;28;20056;-70
2023/06/09 19:05:42;;;;;;;5.70;3.90;;;25.40;66.70;;;;;;10474754;28;20071;-69
2023/06/09 19:10:43;;;;;;;6.80;4.38;;;25.40;67.10;;;;;;10486092;28;20479;-70
2023/06/09 19:15:44;;;;;;;6.97;4.45;;;25.30;67.20;;;;;;10476754;28;20013;-69
2023/06/09 19:20:47;;;;;;;5.10;3.88;;;25.20;67.40;;;;;;10483069;28;20017;-68
2023/06/09 19:25:47;;;;;;;7.43;4.30;;;25.20;67.60;;;;;;10478889;28;20468;-73
2023/06/09 19:30:48;;;;;;;6.95;4.38;;;25.00;67.50;;;;;;10486633;28;20016;-72
2023/06/09 19:35:49;;;;;;;8.68;3.85;;;24.70;68.50;;;;;;10483864;28;20025;-73
2023/06/09 19:40:50;;;;;;;7.38;4.15;;;24.40;68.30;;;;;;10488240;28;20107;-73
2023/06/09 19:45:50;;;;;;;5.78;3.67;;;24.20;68.60;;;;;;10486425;28;20025;-77
2023/06/09 19:50:51;;;;;;;10.15;4.22;;;24.10;68.90;;;;;;10478859;28;20484;-69
2023/06/09 19:55:52;;;;;;;5.85;3.28;;;24.00;69.20;;;;;;10483089;28;20020;-70
2023/06/09 20:00:53;;;;;;;7.53;4.07;;;24.00;69.20;;;;;;10468122;28;20029;-73
2023/06/09 20:05:54;;;;;;;5.35;3.58;;;24.10;69.20;;;;;;10477736;28;20017;-72
2023/06/09 20:10:54;;;;;;;5.72;3.35;;;24.20;69.20;;;;;;10476595;28;20287;-72
2023/06/09 20:15:55;;;;;;;5.53;3.60;;;24.20;69.20;;;;;;10483734;28;20008;-72
2023/06/09 20:20:55;;;;;;;9.65;3.30;;;24.20;69.30;;;;;;10483264;28;20013;-71
2023/06/09 20:25:56;;;;;;;6.50;3.20;;;24.20;69.30;;;;;;10482905;28;20457;-72
2023/06/09 20:30:57;;;;;;;6.60;3.28;;;24.20;69.50;;;;;;10485937;28;20499;-74
2023/06/09 20:35:57;;;;;;;6.03;3.47;;;24.20;69.60;;;;;;10473906;28;20074;-73
2023/06/09 20:40:58;;;;;;;5.72;3.47;;;24.10;69.70;;;;;;10479600;28;20059;-74
2023/06/09 20:46:00;;;;;;;6.68;3.40;;;24.10;69.80;;;;;;10477879;28;20029;-74
2023/06/09 20:51:02;;;;;;;5.00;3.40;;;24.10;70.00;;;;;;10476976;28;20118;-73
2023/06/09 20:56:03;;;;;;;5.00;3.38;;;24.00;70.10;;;;;;10475086;28;20013;-75
2023/06/09 21:01:05;;;;;;;6.15;3.58;;;24.00;70.20;;;;;;10472037;28;20034;-74
2023/06/09 21:06:09;;;;;;;5.22;3.28;;;24.00;70.30;;;;;;10477137;28;20426;-72
2023/06/09 21:11:10;;;;;;;7.30;3.28;;;23.90;70.40;;;;;;10472009;28;20079;-72
2023/06/09 21:16:10;;;;;;;6.45;3.67;;;23.90;70.50;;;;;;10474089;28;20021;-69
2023/06/09 21:21:11;;;;;;;5.30;3.28;;;23.80;70.70;;;;;;10482855;28;20104;-70
2023/06/09 21:26:11;;;;;;;5.90;3.40;;;23.80;70.70;;;;;;10467915;28;20487;-69
2023/06/09 21:31:12;;;;;;;6.90;3.35;;;23.70;70.80;;;;;;10473744;28;20029;-68
2023/06/09 21:36:13;;;;;;;7.80;3.38;;;23.70;70.90;;;;;;10474801;28;20055;-69
2023/06/09 21:41:13;;;;;;;5.20;3.25;;;23.60;70.90;;;;;;10471174;28;20140;-68
2023/06/09 21:46:17;;;;;;;6.95;3.35;;;23.60;71.00;;;;;;10477053;28;20506;-69
2023/06/09 21:51:18;;;;;;;5.18;3.10;;;23.50;71.10;;;;;;10476476;28;20033;-68
2023/06/09 21:56:18;;;;;;;6.97;3.03;;;23.50;71.10;;;;;;10485877;28;20445;-68
2023/06/09 22:01:19;;;;;;;6.45;3.28;;;23.40;71.20;;;;;;10481197;28;20089;-68
2023/06/09 22:06:19;;;;;;;9.45;3.42;;;23.40;71.40;;;;;;10474805;28;20036;-67
2023/06/09 22:11:20;;;;;;;5.30;3.25;;;23.30;71.50;;;;;;10478061;28;20044;-69
2023/06/09 22:16:21;;;;;;;8.38;3.30;;;23.30;71.50;;;;;;10488125;28;20021;-68
2023/06/09 22:21:22;;;;;;;5.45;2.97;;;23.30;71.50;;;;;;10497367;28;20044;-69
2023/06/09 22:26:22;;;;;;;5.18;2.97;;;23.20;71.50;;;;;;10491189;28;20134;-68
2023/06/09 22:31:25;;;;;;;4.88;2.60;;;23.20;71.50;;;;;;10489074;28;20403;-69
2023/06/09 22:36:26;;;;;;;9.75;3.65;;;23.10;71.50;;;;;;10496593;28;20063;-68
2023/06/09 22:41:26;;;;;;;7.20;3.08;;;23.10;71.60;;;;;;10499037;28;20111;-69
2023/06/09 22:46:27;;;;;;;7.30;3.35;;;23.10;71.60;;;;;;10484538;28;20526;-68
2023/06/09 22:51:27;;;;;;;5.82;3.08;;;23.00;71.60;;;;;;10491336;28;20036;-68
2023/06/09 22:56:28;;;;;;;5.40;3.30;;;23.00;71.60;;;;;;10487822;28;20036;-68
2023/06/09 23:01:29;;;;;;;5.95;3.35;;;22.90;71.70;;;;;;10483136;28;20565;-68
2023/06/09 23:06:31;;;;;;;5.22;2.90;;;22.90;71.70;;;;;;10486072;28;20028;-68
2023/06/09 23:11:36;;;;;;;4.78;3.00;;;22.90;71.80;;;;;;10473746;28;20423;-69
2023/06/09 23:16:36;;;;;;;6.55;3.38;;;22.80;71.70;;;;;;10496625;28;20439;-68
2023/06/09 23:21:38;;;;;;;5.22;3.00;;;22.80;71.80;;;;;;10485403;28;20112;-68
2023/06/09 23:26:38;;;;;;;7.07;3.17;;;22.70;71.70;;;;;;10487732;28;20028;-68
2023/06/09 23:31:39;;;;;;;5.53;2.63;;;22.70;71.80;;;;;;10471742;28;20029;-68
2023/06/09 23:36:43;;;;;;;5.03;3.20;;;22.70;71.80;;;;;;10481069;28;20427;-68
2023/06/09 23:41:43;;;;;;;6.05;3.85;;;22.60;71.80;;;;;;10477044;28;20387;-68
2023/06/09 23:46:44;;;;;;;4.75;2.90;;;22.60;71.80;;;;;;10484143;28;20037;-68
2023/06/09 23:51:44;;;;;;;4.70;3.13;;;22.60;71.80;;;;;;10492307;28;20024;-68
2023/06/09 23:56:45;;;;;;;5.65;3.00;;;22.50;71.80;;;;;;10494504;28;20017;-68
